createdAt,value
2022-09-16T00:01:12.881Z,2.92
2022-09-16T00:03:41.832Z,2.55
2022-09-16T00:06:18.603Z,2.78
2022-09-16T00:08:48.704Z,2.40
2022-09-16T00:11:17.653Z,3.33
2022-09-16T00:13:46.232Z,2.75
2022-09-16T00:16:18.236Z,2.63
2022-09-16T00:18:46.442Z,3.03
2022-09-16T00:21:14.753Z,2.95
2022-09-16T00:23:42.914Z,2.30
2022-09-16T00:26:12.644Z,3.03
2022-09-16T00:28:40.933Z,2.75
2022-09-16T00:31:09.330Z,2.60
2022-09-16T00:33:37.524Z,3.05
2022-09-16T00:36:07.722Z,2.40
2022-09-16T00:38:36.402Z,2.63
2022-09-16T00:41:04.983Z,3.03
2022-09-16T00:43:51.183Z,2.83
2022-09-16T00:46:23.675Z,3.03
2022-09-16T00:48:52.213Z,2.45
2022-09-16T00:51:21.502Z,2.75
2022-09-16T00:53:57.201Z,2.95
2022-09-16T00:56:28.542Z,2.37
2022-09-16T00:59:03.632Z,2.28
2022-09-16T01:01:32.632Z,2.25
2022-09-16T01:04:04.501Z,3.25
2022-09-16T01:06:36.290Z,2.65
2022-09-16T01:09:05.112Z,3.03
2022-09-16T01:11:33.331Z,2.58
2022-09-16T01:14:23.041Z,1.85
2022-09-16T01:16:59.620Z,3.03
2022-09-16T01:22:11.892Z,2.42
2022-09-16T01:24:53.132Z,2.33
2022-09-16T01:27:51.041Z,2.50
2022-09-16T01:30:48.201Z,2.25
2022-09-16T01:33:26.602Z,2.28
2022-09-16T01:36:14.628Z,2.10
2022-09-16T01:39:08.551Z,2.53
2022-09-16T01:41:54.722Z,2.80
2022-09-16T01:44:32.012Z,2.87
2022-09-16T01:47:08.107Z,3.05
2022-09-16T01:49:44.232Z,2.13
2022-09-16T01:52:21.741Z,3.67
2022-09-16T01:54:54.022Z,2.80
2022-09-16T01:57:29.187Z,2.88
2022-09-16T02:00:02.967Z,2.40
2022-09-16T02:02:39.817Z,2.47
2022-09-16T02:05:14.052Z,2.60
2022-09-16T02:07:50.420Z,2.70
2022-09-16T02:10:23.511Z,3.00
2022-09-16T02:12:55.041Z,1.92
2022-09-16T02:15:25.761Z,2.33
2022-09-16T02:18:00.241Z,1.85
2022-09-16T02:20:31.100Z,2.25
2022-09-16T02:23:03.321Z,2.55
2022-09-16T02:25:35.911Z,1.95
2022-09-16T02:28:13.401Z,1.90
2022-09-16T02:30:45.572Z,2.65
2022-09-16T02:33:17.131Z,1.90
2022-09-16T02:38:26.159Z,2.03
2022-09-16T02:40:57.340Z,1.80
2022-09-16T02:43:26.221Z,2.35
2022-09-16T02:46:06.674Z,1.55
2022-09-16T02:48:44.181Z,1.77
2022-09-16T02:51:19.011Z,3.38
2022-09-16T02:53:50.911Z,2.13
2022-09-16T02:56:25.469Z,2.80
2022-09-16T02:58:53.941Z,2.40
2022-09-16T03:01:23.258Z,2.40
2022-09-16T03:03:56.510Z,1.90
2022-09-16T03:06:25.961Z,2.63
2022-09-16T03:08:58.364Z,2.90
2022-09-16T03:11:54.399Z,1.83
2022-09-16T03:14:54.801Z,2.55
2022-09-16T03:17:45.832Z,1.90
2022-09-16T03:20:25.560Z,2.17
2022-09-16T03:23:01.950Z,2.33
2022-09-16T03:25:41.180Z,2.58
2022-09-16T03:28:13.801Z,2.15
2022-09-16T03:30:48.466Z,2.10
2022-09-16T03:33:23.995Z,1.88
2022-09-16T03:35:57.702Z,2.30
2022-09-16T03:38:26.171Z,2.00
2022-09-16T03:40:54.531Z,2.13
2022-09-16T03:43:22.772Z,2.03
2022-09-16T03:45:52.689Z,2.45
2022-09-16T03:48:20.921Z,1.95
2022-09-16T03:50:48.962Z,2.10
2022-09-16T03:53:18.642Z,2.50
2022-09-16T03:55:48.772Z,1.90
2022-09-16T03:58:17.010Z,1.88
2022-09-16T04:00:51.121Z,1.75
2022-09-16T04:03:19.362Z,2.08
2022-09-16T04:05:52.480Z,1.55
2022-09-16T04:08:22.756Z,1.55
2022-09-16T04:10:55.263Z,1.77
2022-09-16T04:13:23.523Z,1.33
2022-09-16T04:15:52.429Z,2.70
2022-09-16T04:18:20.660Z,8.48
2022-09-16T04:20:48.762Z,24.90
2022-09-16T04:23:17.051Z,23.42
2022-09-16T04:25:55.462Z,19.20
2022-09-16T04:28:23.913Z,14.57
2022-09-16T04:30:52.539Z,9.43
2022-09-16T04:33:21.144Z,6.82
2022-09-16T04:35:49.291Z,4.10
2022-09-16T04:38:17.552Z,4.03
2022-09-16T04:43:15.411Z,4.53
2022-09-16T04:45:43.712Z,5.30
2022-09-16T04:48:11.951Z,7.78
2022-09-16T04:50:40.050Z,14.93
2022-09-16T04:53:08.271Z,23.33
2022-09-16T04:55:36.893Z,24.58
2022-09-16T04:58:06.800Z,29.67
2022-09-16T05:00:34.962Z,31.25
2022-09-16T05:03:03.092Z,26.92
2022-09-16T05:05:31.292Z,24.05
2022-09-16T05:07:59.362Z,18.10
2022-09-16T05:10:29.001Z,13.77
2022-09-16T05:12:57.121Z,12.95
2022-09-16T05:15:27.102Z,11.07
2022-09-16T05:17:55.332Z,13.30
2022-09-16T05:20:23.561Z,12.02
2022-09-16T05:22:51.983Z,12.07
2022-09-16T05:25:20.042Z,10.88
2022-09-16T05:27:48.340Z,8.63
2022-09-16T05:30:17.673Z,5.90
2022-09-16T05:35:15.851Z,4.50
2022-09-16T05:37:43.952Z,3.70
2022-09-16T05:40:12.298Z,3.30
2022-09-16T05:42:40.532Z,4.15
2022-09-16T05:45:09.952Z,3.30
2022-09-16T05:47:38.193Z,4.25
2022-09-16T05:50:09.321Z,3.03
2022-09-16T05:52:37.891Z,3.42
2022-09-16T05:55:06.720Z,3.75
2022-09-16T05:57:34.856Z,4.47
2022-09-16T06:00:03.752Z,4.78
2022-09-16T06:02:38.618Z,5.38
2022-09-16T06:05:09.881Z,5.70
2022-09-16T06:07:38.332Z,6.85
2022-09-16T06:10:07.690Z,6.45
2022-09-16T06:12:35.752Z,6.15
2022-09-16T06:15:03.971Z,7.10
2022-09-16T06:17:32.101Z,7.88
2022-09-16T06:20:00.248Z,10.35
2022-09-16T06:22:32.941Z,9.57
2022-09-16T06:25:01.143Z,9.65
2022-09-16T06:27:31.502Z,9.73
2022-09-16T06:32:33.250Z,7.32
2022-09-16T06:35:01.522Z,6.65
2022-09-16T06:37:29.683Z,6.22
2022-09-16T06:39:59.405Z,5.63
2022-09-16T06:42:28.842Z,6.13
2022-09-16T06:45:04.764Z,8.68
2022-09-16T06:47:35.631Z,11.32
2022-09-16T06:50:05.601Z,7.03
2022-09-16T06:52:33.872Z,6.45
2022-09-16T06:55:03.451Z,7.78
2022-09-16T06:57:31.920Z,5.72
2022-09-16T07:00:00.124Z,6.22
2022-09-16T07:02:29.039Z,5.88
2022-09-16T07:04:57.482Z,5.05
2022-09-16T07:07:30.241Z,4.93
2022-09-16T07:09:59.481Z,5.25
2022-09-16T07:12:32.159Z,5.65
2022-09-16T07:15:03.367Z,5.43
2022-09-16T07:17:31.772Z,5.35
2022-09-16T07:20:01.080Z,4.82
2022-09-16T07:22:32.781Z,3.72
2022-09-16T07:25:01.883Z,5.57
2022-09-16T07:27:33.571Z,4.53
2022-09-16T07:30:03.618Z,4.00
2022-09-16T07:32:35.500Z,4.47
2022-09-16T07:35:03.791Z,4.35
2022-09-16T07:37:32.112Z,4.45
2022-09-16T07:40:00.292Z,4.18
2022-09-16T07:42:31.831Z,4.45
2022-09-16T07:44:59.981Z,3.60
2022-09-16T07:47:28.161Z,3.15
2022-09-16T07:49:56.520Z,2.03
2022-09-16T07:52:29.715Z,2.03
2022-09-16T07:54:58.213Z,1.70
2022-09-16T07:57:26.622Z,1.65
2022-09-16T07:59:58.301Z,1.40
2022-09-16T08:02:28.250Z,1.58
2022-09-16T08:04:56.850Z,1.38
2022-09-16T08:07:25.103Z,1.60
2022-09-16T08:09:53.491Z,1.40
2022-09-16T08:12:22.292Z,1.38
2022-09-16T08:14:50.553Z,2.22
2022-09-16T08:17:20.183Z,1.80
2022-09-16T08:19:48.632Z,1.20
2022-09-16T08:22:16.750Z,1.40
2022-09-16T08:24:45.131Z,1.35
2022-09-16T08:27:13.552Z,1.50
2022-09-16T08:29:41.875Z,1.85
2022-09-16T08:32:10.871Z,1.60
2022-09-16T08:34:41.232Z,1.65
2022-09-16T08:37:10.194Z,2.45
2022-09-16T08:39:38.422Z,2.10
2022-09-16T08:42:35.872Z,2.13
2022-09-16T08:45:19.962Z,2.05
2022-09-16T08:48:01.591Z,2.42
2022-09-16T08:50:34.771Z,2.45
2022-09-16T08:53:08.031Z,2.05
2022-09-16T08:55:40.511Z,2.25
2022-09-16T08:58:15.801Z,2.42
2022-09-16T09:00:47.282Z,1.77
2022-09-16T09:03:24.900Z,1.55
2022-09-16T09:05:56.602Z,2.20
2022-09-16T09:08:40.741Z,2.40
2022-09-16T09:11:27.950Z,2.22
2022-09-16T09:14:11.181Z,1.40
2022-09-16T09:16:47.024Z,2.33
2022-09-16T09:19:32.492Z,2.35
2022-09-16T09:22:08.650Z,1.70
2022-09-16T09:24:52.399Z,2.00
2022-09-16T09:27:28.950Z,1.95
2022-09-16T09:30:06.128Z,2.28
2022-09-16T09:32:49.463Z,1.38
2022-09-16T09:35:30.492Z,2.15
2022-09-16T09:38:39.123Z,2.05
2022-09-16T09:41:13.231Z,2.22
2022-09-16T09:43:47.685Z,1.65
2022-09-16T09:46:23.786Z,1.67
2022-09-16T09:49:00.759Z,1.60
2022-09-16T09:51:33.762Z,1.95
2022-09-16T09:54:20.908Z,1.80
2022-09-16T09:56:51.778Z,1.70
2022-09-16T09:59:28.651Z,1.20
2022-09-16T10:01:58.673Z,1.30
2022-09-16T10:04:27.613Z,1.80
2022-09-16T10:06:57.765Z,1.13
2022-09-16T10:09:28.110Z,1.70
2022-09-16T10:11:57.318Z,1.42
2022-09-16T10:14:30.438Z,1.52
2022-09-16T10:17:03.509Z,1.10
2022-09-16T10:19:35.903Z,1.20
2022-09-16T10:22:11.932Z,1.20
2022-09-16T10:24:43.708Z,2.53
2022-09-16T10:27:22.549Z,1.60
2022-09-16T10:30:08.396Z,1.27
2022-09-16T10:32:57.088Z,1.40
2022-09-16T10:35:27.772Z,1.75
2022-09-16T10:37:59.120Z,1.27
2022-09-16T10:40:29.665Z,1.75
2022-09-16T10:43:04.449Z,1.83
2022-09-16T10:45:36.372Z,1.52
2022-09-16T10:48:12.202Z,1.70
2022-09-16T10:50:52.908Z,1.80
2022-09-16T10:53:30.912Z,1.30
2022-09-16T10:56:08.713Z,1.10
2022-09-16T10:58:37.881Z,1.80
2022-09-16T11:01:22.314Z,2.40
2022-09-16T11:04:25.397Z,1.40
2022-09-16T11:07:09.252Z,1.17
2022-09-16T11:09:50.850Z,1.27
2022-09-16T11:12:47.063Z,1.25
2022-09-16T11:15:29.197Z,1.48
2022-09-16T11:18:11.901Z,1.20
2022-09-16T11:20:59.853Z,1.63
2022-09-16T11:23:49.524Z,1.98
2022-09-16T11:26:27.438Z,1.90
2022-09-16T11:29:13.905Z,2.10
2022-09-16T11:31:54.764Z,2.65
2022-09-16T11:34:47.715Z,1.67
2022-09-16T11:37:27.132Z,2.20
2022-09-16T11:40:14.663Z,2.13
2022-09-16T11:42:47.664Z,2.15
2022-09-16T11:45:37.023Z,2.10
2022-09-16T11:48:41.123Z,2.55
2022-09-16T11:51:26.638Z,3.05
2022-09-16T11:54:10.640Z,3.42
2022-09-16T11:56:44.442Z,2.83
2022-09-16T11:59:21.276Z,3.17
2022-09-16T12:02:02.895Z,3.28
2022-09-16T12:04:39.280Z,3.53
2022-09-16T12:07:18.666Z,3.55
2022-09-16T12:09:52.992Z,3.60
2022-09-16T12:12:25.981Z,4.03
2022-09-16T12:15:04.786Z,3.28
2022-09-16T12:17:38.947Z,3.67
2022-09-16T12:20:14.978Z,3.30
2022-09-16T12:22:49.732Z,3.88
2022-09-16T12:25:22.969Z,3.30
2022-09-16T12:27:54.931Z,4.03
2022-09-16T12:30:28.368Z,3.95
2022-09-16T12:33:06.842Z,3.53
2022-09-16T12:35:38.927Z,3.80
2022-09-16T12:38:13.843Z,3.22
2022-09-16T12:40:58.460Z,2.55
2022-09-16T12:44:23.478Z,2.67
2022-09-16T12:47:12.649Z,2.33
2022-09-16T12:52:42.247Z,2.30
2022-09-16T12:55:35.957Z,1.95
2022-09-16T12:58:24.938Z,2.28
2022-09-16T13:01:04.664Z,1.60
2022-09-16T13:06:07.187Z,1.98
2022-09-16T13:08:37.835Z,1.48
2022-09-16T13:13:59.713Z,1.80
2022-09-16T13:16:32.471Z,2.08
2022-09-16T13:19:28.622Z,2.15
2022-09-16T13:21:59.740Z,1.77
2022-09-16T13:24:37.439Z,1.67
2022-09-16T13:27:29.312Z,2.13
2022-09-16T13:30:42.193Z,2.05
2022-09-16T13:33:28.753Z,1.50
2022-09-16T13:36:31.989Z,2.55
2022-09-16T13:39:02.593Z,2.58
2022-09-16T13:41:36.130Z,1.85
2022-09-16T13:44:27.900Z,1.88
2022-09-16T13:47:08.010Z,2.00
2022-09-16T13:49:42.935Z,1.75
2022-09-16T13:52:13.359Z,2.28
2022-09-16T13:55:09.044Z,2.17
2022-09-16T13:57:49.861Z,2.35
2022-09-16T14:00:23.637Z,1.88
2022-09-16T14:03:17.785Z,2.03
2022-09-16T14:06:13.048Z,2.33
2022-09-16T14:08:51.643Z,1.83
2022-09-16T14:11:27.498Z,1.92
2022-09-16T14:14:06.877Z,2.10
2022-09-16T14:16:40.498Z,1.80
2022-09-16T14:19:19.455Z,1.98
2022-09-16T14:21:48.550Z,1.67
2022-09-16T14:24:19.731Z,1.70
2022-09-16T14:26:52.910Z,1.85
2022-09-16T14:29:24.304Z,2.20
2022-09-16T14:31:55.458Z,2.08
2022-09-16T14:34:29.379Z,1.90
2022-09-16T14:36:58.689Z,2.13
2022-09-16T14:39:28.718Z,2.22
2022-09-16T14:41:59.769Z,2.40
2022-09-16T14:44:36.155Z,2.45
2022-09-16T14:47:16.018Z,2.22
2022-09-16T14:49:53.999Z,2.03
2022-09-16T14:52:24.848Z,2.60
2022-09-16T14:54:53.699Z,2.20
2022-09-16T14:57:24.695Z,2.67
2022-09-16T14:59:58.408Z,2.47
2022-09-16T15:02:30.813Z,2.70
2022-09-16T15:05:04.926Z,2.45
2022-09-16T15:07:46.014Z,2.85
2022-09-16T15:10:30.259Z,3.20
2022-09-16T15:13:13.178Z,2.88
2022-09-16T15:15:50.352Z,3.38
2022-09-16T15:18:25.805Z,2.67
2022-09-16T15:21:04.321Z,2.95
2022-09-16T15:23:34.582Z,3.13
2022-09-16T15:26:13.176Z,2.30
2022-09-16T15:28:52.888Z,3.17
2022-09-16T15:31:32.606Z,3.20
2022-09-16T15:34:02.715Z,3.00
2022-09-16T15:36:40.413Z,2.80
2022-09-16T15:39:24.669Z,2.35
2022-09-16T15:42:11.631Z,2.42
2022-09-16T15:44:46.849Z,2.30
2022-09-16T15:47:25.584Z,2.60
2022-09-16T15:49:56.514Z,3.13
2022-09-16T15:52:25.126Z,2.40
2022-09-16T15:54:57.898Z,2.53
2022-09-16T15:57:32.240Z,3.72
2022-09-16T16:00:16.968Z,2.35
2022-09-16T16:02:52.351Z,2.35
2022-09-16T16:05:24.288Z,2.73
2022-09-16T16:07:55.035Z,2.42
2022-09-16T16:10:26.114Z,2.15
2022-09-16T16:12:56.899Z,2.22
2022-09-16T16:15:29.257Z,2.08
2022-09-16T16:18:02.263Z,2.45
2022-09-16T16:20:34.711Z,2.15
2022-09-16T16:23:04.897Z,2.47
2022-09-16T16:25:33.668Z,2.75
2022-09-16T16:28:02.558Z,2.22
2022-09-16T16:30:32.044Z,2.72
2022-09-16T16:33:02.197Z,2.25
2022-09-16T16:35:30.870Z,2.17
2022-09-16T16:38:00.024Z,2.45
2022-09-16T16:40:28.744Z,3.03
2022-09-16T16:42:57.715Z,2.42
2022-09-16T16:45:26.584Z,2.60
2022-09-16T16:47:55.339Z,2.70
2022-09-16T16:50:25.823Z,2.95
2022-09-16T16:52:56.500Z,2.80
2022-09-16T16:55:26.056Z,3.10
2022-09-16T16:57:55.237Z,2.25
2022-09-16T17:00:25.924Z,3.20
2022-09-16T17:02:54.862Z,2.80
2022-09-16T17:05:25.057Z,3.03
2022-09-16T17:07:53.817Z,2.72
2022-09-16T17:10:23.698Z,2.72
2022-09-16T17:15:21.575Z,2.90
2022-09-16T17:17:50.433Z,3.20
2022-09-16T17:20:19.429Z,3.35
2022-09-16T17:22:49.944Z,3.08
2022-09-16T17:25:18.708Z,3.10
2022-09-16T17:27:47.265Z,2.72
2022-09-16T17:30:15.989Z,3.10
2022-09-16T17:32:44.458Z,3.38
2022-09-16T17:35:13.204Z,3.13
2022-09-16T17:37:41.913Z,3.60
2022-09-16T17:40:12.764Z,3.20
2022-09-16T17:42:42.003Z,3.53
2022-09-16T17:45:11.369Z,3.45
2022-09-16T17:47:40.249Z,3.35
2022-09-16T17:50:09.301Z,3.45
2022-09-16T17:52:37.633Z,3.42
2022-09-16T17:55:06.273Z,3.17
2022-09-16T17:57:36.273Z,3.20
2022-09-16T18:00:05.741Z,3.75
2022-09-16T18:02:40.275Z,3.42
2022-09-16T18:05:09.718Z,2.97
2022-09-16T18:07:38.092Z,3.60
2022-09-16T18:12:37.323Z,3.53
2022-09-16T18:15:07.313Z,2.97
2022-09-16T18:17:35.695Z,4.32
2022-09-16T18:20:07.130Z,4.25
2022-09-16T18:22:35.622Z,3.15
2022-09-16T18:25:05.012Z,3.85
2022-09-16T18:27:34.232Z,3.72
2022-09-16T18:30:04.355Z,3.88
2022-09-16T18:32:33.140Z,3.70
2022-09-16T18:35:01.353Z,3.38
2022-09-16T18:37:29.753Z,3.92
2022-09-16T18:39:58.061Z,3.25
2022-09-16T18:42:26.533Z,3.95
2022-09-16T18:44:54.953Z,3.60
2022-09-16T18:47:24.952Z,3.20
2022-09-16T18:49:53.362Z,3.72
2022-09-16T18:52:21.653Z,3.75
2022-09-16T18:54:49.902Z,3.70
2022-09-16T18:57:18.372Z,3.15
2022-09-16T18:59:47.471Z,3.40
2022-09-16T19:02:16.592Z,3.30
2022-09-16T19:04:46.611Z,3.45
2022-09-16T19:07:17.632Z,3.28
2022-09-16T19:09:48.955Z,3.80
2022-09-16T19:12:17.372Z,3.50
2022-09-16T19:14:46.672Z,3.15
2022-09-16T19:17:15.428Z,3.95
2022-09-16T19:19:43.671Z,3.83
2022-09-16T19:22:13.782Z,4.32
2022-09-16T19:24:44.000Z,3.22
2022-09-16T19:27:12.452Z,3.47
2022-09-16T19:29:40.782Z,3.85
2022-09-16T19:32:08.983Z,3.85
2022-09-16T19:34:37.133Z,3.33
2022-09-16T19:37:05.844Z,3.45
2022-09-16T19:39:37.063Z,3.10
2022-09-16T19:42:11.002Z,3.42
2022-09-16T19:44:45.995Z,3.47
2022-09-16T19:47:19.703Z,3.15
2022-09-16T19:49:50.162Z,3.65
2022-09-16T19:52:18.431Z,3.70
2022-09-16T19:54:48.614Z,3.70
2022-09-16T19:57:17.343Z,3.97
2022-09-16T19:59:46.881Z,3.28
2022-09-16T20:02:16.433Z,3.83
2022-09-16T20:04:46.005Z,4.05
2022-09-16T20:07:17.465Z,3.30
2022-09-16T20:09:49.082Z,3.60
2022-09-16T20:12:17.674Z,3.67
2022-09-16T20:14:46.032Z,3.42
2022-09-16T20:17:14.943Z,3.67
2022-09-16T20:19:43.772Z,3.83
2022-09-16T20:22:13.383Z,3.90
2022-09-16T20:24:42.422Z,3.30
2022-09-16T20:27:13.170Z,3.85
2022-09-16T20:29:49.824Z,2.78
2022-09-16T20:32:18.491Z,3.42
2022-09-16T20:34:47.808Z,3.15
2022-09-16T20:37:17.043Z,3.50
2022-09-16T20:39:45.683Z,3.70
2022-09-16T20:42:15.632Z,3.30
2022-09-16T20:44:47.610Z,3.58
2022-09-16T20:47:17.921Z,3.50
2022-09-16T20:49:46.654Z,3.33
2022-09-16T20:52:16.522Z,3.50
2022-09-16T20:54:45.192Z,4.00
2022-09-16T20:57:17.362Z,3.55
2022-09-16T20:59:46.287Z,3.88
2022-09-16T21:02:14.710Z,3.33
2022-09-16T21:04:43.194Z,3.45
2022-09-16T21:07:12.551Z,3.67
2022-09-16T21:09:40.972Z,4.45
2022-09-16T21:12:11.462Z,3.53
2022-09-16T21:14:41.592Z,3.72
2022-09-16T21:17:10.332Z,3.25
2022-09-16T21:19:40.632Z,3.80
2022-09-16T21:22:09.792Z,3.55
2022-09-16T21:24:38.202Z,3.42
2022-09-16T21:27:07.133Z,4.00
2022-09-16T21:29:35.352Z,3.50
2022-09-16T21:32:05.202Z,3.78
2022-09-16T21:34:33.612Z,3.72
2022-09-16T21:37:03.942Z,3.75
2022-09-16T21:39:32.553Z,3.40
2022-09-16T21:42:01.155Z,3.80
2022-09-16T21:44:29.711Z,3.17
2022-09-16T21:46:57.834Z,3.00
2022-09-16T21:49:29.397Z,3.75
2022-09-16T21:51:59.096Z,3.40
2022-09-16T21:54:28.428Z,3.15
2022-09-16T21:56:56.518Z,2.90
2022-09-16T21:59:25.198Z,3.30
2022-09-16T22:01:57.554Z,3.58
2022-09-16T22:04:30.398Z,2.88
2022-09-16T22:06:58.636Z,2.97
2022-09-16T22:09:26.817Z,3.25
2022-09-16T22:11:55.096Z,3.08
2022-09-16T22:14:24.156Z,3.17
2022-09-16T22:16:52.218Z,2.92
2022-09-16T22:19:20.618Z,2.85
2022-09-16T22:21:51.977Z,2.95
2022-09-16T22:24:21.757Z,3.53
2022-09-16T22:26:51.370Z,2.85
2022-09-16T22:29:20.096Z,3.22
2022-09-16T22:31:48.758Z,3.13
2022-09-16T22:34:17.201Z,3.42
2022-09-16T22:36:45.497Z,3.05
2022-09-16T22:39:16.674Z,2.80
2022-09-16T22:41:45.090Z,3.03
2022-09-16T22:44:13.769Z,3.90
2022-09-16T22:46:43.910Z,2.80
2022-09-16T22:49:13.200Z,2.83
2022-09-16T22:51:41.672Z,3.15
2022-09-16T22:54:11.509Z,3.13
2022-09-16T22:56:42.197Z,2.97
2022-09-16T22:59:15.917Z,2.95
2022-09-16T23:01:44.263Z,3.00
2022-09-16T23:04:12.519Z,3.15
2022-09-16T23:06:41.529Z,3.22
2022-09-16T23:09:11.438Z,3.00
2022-09-16T23:11:41.393Z,2.55
2022-09-16T23:14:13.196Z,3.55
2022-09-16T23:16:42.987Z,3.40
2022-09-16T23:19:12.661Z,2.90
2022-09-16T23:21:41.242Z,2.50
2022-09-16T23:24:13.896Z,2.88
2022-09-16T23:26:44.609Z,3.20
2022-09-16T23:29:14.708Z,3.17
2022-09-16T23:31:44.650Z,2.97
2022-09-16T23:34:15.507Z,3.30
2022-09-16T23:36:43.998Z,2.75
2022-09-16T23:39:14.113Z,3.22
2022-09-16T23:41:44.568Z,3.30
2022-09-16T23:44:14.641Z,2.97
2022-09-16T23:46:43.359Z,3.05
2022-09-16T23:49:12.192Z,3.53
2022-09-16T23:51:40.398Z,2.85
2022-09-16T23:54:10.820Z,3.13
2022-09-16T23:56:38.957Z,3.40
2022-09-16T23:59:08.557Z,2.67
